ENRS

Røst Airport

Norway
METAR ENRS 251420Z 25027KT 9999 -SHRA FEW020TCU SCT040 09/04 Q1002
Observed Flight Rules
Sep-25 @ 14:20 UTC (47 minutes ago) Visual Flight Rules
Wind Visibility Clouds Conditions
250° at 27 knots 10,000+ meters
  • Few at 2,000' AGL
  • Scattered at 4,000' AGL
  • Light Rain
Temperatures Readings
Current 9°C / 48°F
Dewpoint 4°C / 39°F
Humidity 71%
Altimeter 29.59" Hg
Pressure 1002 hPa
Elevation 4
METAR ENRS 251420Z 25027KT 9999 -SHRA FEW020TCU SCT040 09/04 Q1002
Observed Flight Rules
Sep-25 @ 14:20 UTC
(47 minutes ago)
VFR
Wind Visibility
250° at 27 knots 10,000+ meters
Clouds
  • Few at 2,000' AGL
  • Scattered at 4,000' AGL
Conditions
  • Light Rain
Temperature Dewpoint
9°C / 48°F 4°C / 39°F
Humidity Altimeter Pressure
71% 29.59" Hg 1002 hPa